James Cook — MLRM6 — position and weather

sailwx.info

Track history (hours):
 
Tides and Currents Weather Stations Pressure Air Temp Water Temp Dewpoint Dewpoint Depression Visibility Wind Speed Wind Dir Waves Ship Positions

Oceanographic research ship James Cook (UK)

Last reported at 2018-Aug-06 09:00 UTC. Time now 2018-Aug-15 22:11 UTC.
Position N 47°00' W 012°00'.
Warning: this ship's position is 9 days out of date.

Length 89.2 m; beam 18.6 m; draft 5.7 m.

Type: Other ship. MMSI: 235010700.

Wind from 350 at 11 knots

Barometer 1019.7 mb
Air temperature 18.0 ° C
Visibility: greater than 10.8 NM
Dewpoint 12.7 ° C
Water temperature 19.0 ° C

Date/timePositionNaut miles runAvg speedWind from/ knotsBaromVisibWave heightAir tempDewpointWater temp
2018-Aug-06 09:00N 47°00' W 012°00'25811.5 350 / 111019.710.8 18.012.719.0
2018-Aug-05 10:35N 49°02' W 006°20'811.8
2018-Aug-05 09:54N 49°05' W 006°08'2611.6
2018-Aug-05 07:37N 49°17' W 005°32'2312.2
2018-Aug-05 05:45N 49°25' W 004°59'612.8
2018-Aug-05 05:20N 49°27' W 004°52'513.0
2018-Aug-05 04:59N 49°28' W 004°45'613.0
2018-Aug-05 04:30N 49°31' W 004°36'713.1
2018-Aug-05 04:00N 49°33' W 004°27'813.2
2018-Aug-05 03:24N 49°36' W 004°16'1413.0
2018-Aug-05 02:21N 49°41' W 003°56'412.7
2018-Aug-05 02:00N 49°43' W 003°50'612.3
2018-Aug-05 01:30N 49°46' W 003°41'612.0
2018-Aug-05 01:00N 49°48' W 003°33'611.8
2018-Aug-05 00:30N 49°51' W 003°25'611.5
2018-Aug-05 00:01N 49°53' W 003°16'611.4
2018-Aug-04 23:30N 49°55' W 003°08'611.6
2018-Aug-04 23:00N 49°57' W 002°60'611.7
2018-Aug-04 22:30N 49°59' W 002°51'611.8
2018-Aug-04 22:00N 50°00' W 002°42'612.2
2018-Aug-04 21:28N 50°02' W 002°33'612.6
2018-Aug-04 21:00N 50°04' W 002°24'713.1
2018-Aug-04 20:28N 50°05' W 002°13'1113.9
2018-Aug-04 19:42N 50°08' W 001°57'7713.0
2018-Aug-04 13:48N 50°28' W 000°01'410.7
2018-Aug-04 13:28N 50°29' E 000°04'510.7
2018-Aug-04 13:00N 50°30' E 000°12'510.9
2018-Aug-04 12:30N 50°32' E 000°20'611.5
2018-Aug-04 12:00N 50°34' E 000°28'611.6
2018-Aug-04 11:30N 50°35' E 000°37'612.7
2018-Aug-04 11:00N 50°39' E 000°45'713.5
2018-Aug-04 10:30N 50°43' E 000°54'713.9
2018-Aug-04 10:00N 50°47' E 001°03'714.0
2018-Aug-04 09:30N 50°51' E 001°12'713.9
2018-Aug-04 09:01N 50°56' E 001°19'713.8
2018-Aug-04 08:30N 51°01' E 001°27'612.5
2018-Aug-04 08:00N 51°05' E 001°34'611.8
2018-Aug-04 07:30N 51°10' E 001°41'611.5
2018-Aug-04 07:01N 51°14' E 001°47'510.9
2018-Aug-04 06:31N 51°18' E 001°52'510.9
2018-Aug-04 06:01N 51°23' E 001°55'510.6
2018-Aug-04 05:31N 51°28' E 001°60'511.0
2018-Aug-04 05:01N 51°32' E 002°06'611.3
2018-Aug-04 04:31N 51°36' E 002°12'611.4
2018-Aug-04 04:01N 51°40' E 002°18'612.0
2018-Aug-04 03:31N 51°44' E 002°25'612.5
2018-Aug-04 03:00N 51°49' E 002°32'713.1
2018-Aug-04 02:30N 51°54' E 002°39'713.4
2018-Aug-04 02:00N 51°59' E 002°45'713.7
2018-Aug-04 01:30N 52°05' E 002°52'713.7
2018-Aug-04 01:00N 52°10' E 002°59'713.5
2018-Aug-04 00:31N 52°14' E 003°07'713.3
2018-Aug-04 00:01N 52°18' E 003°17'713.1
2018-Aug-03 23:31N 52°22' E 003°25'712.9
2018-Aug-03 23:00N 52°26' E 003°33'612.3
2018-Aug-03 22:31N 52°30' E 003°42'611.7
2018-Aug-03 22:01N 52°31' E 003°51'612.4
2018-Aug-03 21:30N 52°31' E 004°01'612.1
2018-Aug-03 21:01N 52°31' E 004°11'611.9
2018-Aug-03 20:31N 52°30' E 004°21'611.6
2018-Aug-03 20:00N 52°28' E 004°30'4 8.2
2018-Aug-03 19:30N 52°28' E 004°36'0 0.2
2018-Aug-03 19:00N 52°28' E 004°37'2 3.9
2018-Aug-03 18:31N 52°28' E 004°40'4 8.0
2018-Aug-03 18:01N 52°26' E 004°45'4 8.8
2018-Aug-03 17:31N 52°25' E 004°52'0 0.8
2018-Aug-03 17:00N 52°24' E 004°53'0 0.0
2018-Aug-03 16:30N 52°24' E 004°53'0 0.0
2018-Aug-03 16:00N 52°24' E 004°53'0 0.0
2018-Aug-03 15:30N 52°24' E 004°53'0 0.0
2018-Aug-03 14:58N 52°24' E 004°53'0 0.0
2018-Aug-03 14:28N 52°24' E 004°53'0 0.0
2018-Aug-03 13:58N 52°24' E 004°53'0 0.0
2018-Aug-03 13:28N 52°24' E 004°53'0 0.0
2018-Aug-03 12:59N 52°24' E 004°53'0 0.0
2018-Aug-03 12:29N 52°24' E 004°53'0 0.0
2018-Aug-03 11:59N 52°24' E 004°53'0 0.0
2018-Aug-03 11:29N 52°24' E 004°53'0 0.0
2018-Aug-03 11:00N 52°24' E 004°53'0 0.0
2018-Aug-03 10:30N 52°24' E 004°53'0 0.0
2018-Aug-03 10:00N 52°24' E 004°53'0 0.0
2018-Aug-03 09:30N 52°24' E 004°53'0 0.0
2018-Aug-03 08:58N 52°24' E 004°53'0 0.0
2018-Aug-03 08:28N 52°24' E 004°53'0 0.0
2018-Aug-03 07:58N 52°24' E 004°53'0 0.0
2018-Aug-03 07:29N 52°24' E 004°53'0 0.0
2018-Aug-03 06:59N 52°24' E 004°53'0 0.0
2018-Aug-03 06:29N 52°24' E 004°53'0 0.0
2018-Aug-03 05:59N 52°24' E 004°53'0 0.0
2018-Aug-03 05:30N 52°24' E 004°53'0 0.0
2018-Aug-03 05:00N 52°24' E 004°53'0 0.0
2018-Aug-03 04:30N 52°24' E 004°53'0 0.0
2018-Aug-03 04:00N 52°24' E 004°53'0 0.0
2018-Aug-03 03:28N 52°24' E 004°53'0 0.0
2018-Aug-03 02:58N 52°24' E 004°53'0 0.0
2018-Aug-03 02:28N 52°24' E 004°53'0 0.0
2018-Aug-03 01:59N 52°24' E 004°53'0 0.0
2018-Aug-03 01:29N 52°24' E 004°53'0 0.0
2018-Aug-03 00:59N 52°24' E 004°53'0 0.0
2018-Aug-03 00:29N 52°24' E 004°53'0 0.0
2018-Aug-03 00:00N 52°24' E 004°53'0 0.0
2018-Aug-02 23:30N 52°24' E 004°53'0 0.0
2018-Aug-02 23:00N 52°24' E 004°53'0 0.0
2018-Aug-02 22:30N 52°24' E 004°53'0 0.0
2018-Aug-02 21:58N 52°24' E 004°53'0 0.0
2018-Aug-02 21:28N 52°24' E 004°53'0 0.0
2018-Aug-02 20:58N 52°24' E 004°53'0 0.0
2018-Aug-02 20:28N 52°24' E 004°53'0 0.0
2018-Aug-02 19:59N 52°24' E 004°53'0 0.0
2018-Aug-02 19:29N 52°24' E 004°53'0 0.0
2018-Aug-02 18:59N 52°24' E 004°53'0 0.0
2018-Aug-02 18:29N 52°24' E 004°53'0 0.0
2018-Aug-02 18:00N 52°24' E 004°53'0 0.0
2018-Aug-02 17:30N 52°24' E 004°53'0 0.0
2018-Aug-02 17:00N 52°24' E 004°53'0 0.0
2018-Aug-02 16:30N 52°24' E 004°53'0 0.0
2018-Aug-02 15:58N 52°24' E 004°53'0 0.0
2018-Aug-02 15:28N 52°24' E 004°53'0 0.0
2018-Aug-02 14:58N 52°24' E 004°53'0 0.0
2018-Aug-02 14:29N 52°24' E 004°53'0 0.0
2018-Aug-02 13:59N 52°24' E 004°53'0 0.0
2018-Aug-02 13:29N 52°24' E 004°53'0 0.0
2018-Aug-02 12:59N 52°24' E 004°53'0 0.0
2018-Aug-02 12:30N 52°24' E 004°53'0 0.0
2018-Aug-02 12:00N 52°24' E 004°53'0 0.0
2018-Aug-02 11:30N 52°24' E 004°53'0 0.0
2018-Aug-02 11:00N 52°24' E 004°53'0 0.0
2018-Aug-02 10:28N 52°24' E 004°53'0 0.0
2018-Aug-02 09:58N 52°24' E 004°53'0 0.0
2018-Aug-02 09:28N 52°24' E 004°53'0 0.0
2018-Aug-02 08:59N 52°24' E 004°53'0 0.0
2018-Aug-02 08:29N 52°24' E 004°53'0 0.0
2018-Aug-02 07:59N 52°24' E 004°53'0 0.0
2018-Aug-02 07:29N 52°24' E 004°53'0 0.0
2018-Aug-02 07:00N 52°24' E 004°53'0 0.0
2018-Aug-02 06:30N 52°24' E 004°53'0 0.0
2018-Aug-02 06:00N 52°24' E 004°53'0 0.0
2018-Aug-02 05:30N 52°24' E 004°53'0 0.0
2018-Aug-02 04:58N 52°24' E 004°53'0 0.0
2018-Aug-02 04:28N 52°24' E 004°53'0 0.0
2018-Aug-02 03:58N 52°24' E 004°53'0 0.0
2018-Aug-02 03:28N 52°24' E 004°53'0 0.0
2018-Aug-02 02:59N 52°24' E 004°53'0 0.0
2018-Aug-02 02:29N 52°24' E 004°53'0 0.0
2018-Aug-02 01:59N 52°24' E 004°53'0 0.0
2018-Aug-02 01:29N 52°24' E 004°53'0 0.0
2018-Aug-02 01:00N 52°24' E 004°53'0 0.0
2018-Aug-02 00:30N 52°24' E 004°53'0 0.0
2018-Aug-02 00:00N 52°24' E 004°53'0 0.0
2018-Aug-01 23:28N 52°24' E 004°53'0 0.0
2018-Aug-01 22:58N 52°24' E 004°53'0 0.0
2018-Aug-01 22:28N 52°24' E 004°53'0 0.0
2018-Aug-01 21:58N 52°24' E 004°53'0 0.0
2018-Aug-01 21:29N 52°24' E 004°53'0 0.0
2018-Aug-01 20:59N 52°24' E 004°53'0 0.0
2018-Aug-01 20:29N 52°24' E 004°53'0 0.0
2018-Aug-01 20:00N 52°24' E 004°53'0 0.0
2018-Aug-01 19:30N 52°24' E 004°53'0 0.0
2018-Aug-01 19:00N 52°24' E 004°53'0 0.0
2018-Aug-01 18:30N 52°24' E 004°53'0 0.0
2018-Aug-01 17:58N 52°24' E 004°53'0 0.0
2018-Aug-01 17:28N 52°24' E 004°53'0 0.0
2018-Aug-01 16:58N 52°24' E 004°53'0 0.0
2018-Aug-01 16:28N 52°24' E 004°53'0 0.0
2018-Aug-01 15:59N 52°24' E 004°53'0 0.0
2018-Aug-01 15:29N 52°24' E 004°53'0 0.0
2018-Aug-01 14:59N 52°24' E 004°53'0 0.0
2018-Aug-01 14:00N 52°24' E 004°53'0 0.0
2018-Aug-01 13:30N 52°24' E 004°53'0 0.0
2018-Aug-01 13:00N 52°24' E 004°53'0 0.0
2018-Aug-01 12:30N 52°24' E 004°53'0 0.0
2018-Aug-01 11:58N 52°24' E 004°53'0 0.0
2018-Aug-01 11:28N 52°24' E 004°53'0 0.0
2018-Aug-01 10:58N 52°24' E 004°53'0 0.0
2018-Aug-01 10:29N 52°24' E 004°53'0 0.0
2018-Aug-01 09:59N 52°24' E 004°53'0 0.0
2018-Aug-01 09:29N 52°24' E 004°53'0 0.0
2018-Aug-01 08:59N 52°24' E 004°53'0 0.0
2018-Aug-01 08:30N 52°24' E 004°53'0 0.0
2018-Aug-01 08:00N 52°24' E 004°53'0 0.0
2018-Aug-01 07:30N 52°24' E 004°53'0 0.0
2018-Aug-01 07:00N 52°24' E 004°53'0 0.0
2018-Aug-01 06:28N 52°24' E 004°53'0 0.0
2018-Aug-01 05:58N 52°24' E 004°53'0 0.0
2018-Aug-01 05:28N 52°24' E 004°53'0 0.0
2018-Aug-01 04:59N 52°24' E 004°53'0 0.0
2018-Aug-01 04:29N 52°24' E 004°53'0 0.0
2018-Aug-01 03:59N 52°24' E 004°53'0 0.0
2018-Aug-01 03:29N 52°24' E 004°53'0 0.0
2018-Aug-01 03:00N 52°24' E 004°53'0 0.0
2018-Aug-01 02:30N 52°24' E 004°53'0 0.0
2018-Aug-01 02:00N 52°24' E 004°53'0 0.0
2018-Aug-01 01:30N 52°24' E 004°53'0 0.0
2018-Aug-01 00:58N 52°24' E 004°53'0 0.0
2018-Jul-31 22:29N 52°24' E 004°53'0 0.0
2018-Jul-31 21:59N 52°24' E 004°53'0 0.0
2018-Jul-31 21:30N 52°24' E 004°53'0 0.0
2018-Jul-31 21:00N 52°24' E 004°53'0 0.0
2018-Jul-31 20:30N 52°24' E 004°53'0 0.0
2018-Jul-31 20:00N 52°24' E 004°53'0 0.0
2018-Jul-31 19:28N 52°24' E 004°53'0 0.0
2018-Jul-31 18:58N 52°24' E 004°53'0 0.0
2018-Jul-31 18:28N 52°24' E 004°53'0 0.0
2018-Jul-31 17:58N 52°24' E 004°53'0 0.0
2018-Jul-31 17:29N 52°24' E 004°53'0 0.0
2018-Jul-31 16:59N 52°24' E 004°53'0 0.0
2018-Jul-31 16:29N 52°24' E 004°53'0 0.0
2018-Jul-31 15:59N 52°24' E 004°53'0 0.0
2018-Jul-31 15:30N 52°24' E 004°53'0 0.0
2018-Jul-31 15:00N 52°24' E 004°53'0 0.0
2018-Jul-31 14:30N 52°24' E 004°53'0 0.0
2018-Jul-31 14:00N 52°24' E 004°53'0 0.0
2018-Jul-31 13:28N 52°24' E 004°53'0 0.0
2018-Jul-31 12:58N 52°24' E 004°53'0 0.0
2018-Jul-31 12:28N 52°24' E 004°53'0 0.0
2018-Jul-31 11:58N 52°24' E 004°53'0 0.0
2018-Jul-31 11:29N 52°24' E 004°53'0 0.0
2018-Jul-31 10:59N 52°24' E 004°53'0 0.0
2018-Jul-31 10:29N 52°24' E 004°53'0 0.0
2018-Jul-31 09:59N 52°24' E 004°53'0 0.0
2018-Jul-31 09:30N 52°24' E 004°53'0 0.0
2018-Jul-31 09:00N 52°24' E 004°53'0 0.0
2018-Jul-31 08:30N 52°24' E 004°53'0 0.0
2018-Jul-31 07:58N 52°24' E 004°53'0 0.0
2018-Jul-31 07:28N 52°24' E 004°53'0 0.0
2018-Jul-31 06:58N 52°24' E 004°53'0 0.0
2018-Jul-31 06:28N 52°24' E 004°53'0 0.0
2018-Jul-31 05:59N 52°24' E 004°53'0 0.0
2018-Jul-31 05:29N 52°24' E 004°53'0 0.0
2018-Jul-31 04:59N 52°24' E 004°53'0 0.0
2018-Jul-31 04:30N 52°24' E 004°53'0 0.0
2018-Jul-31 04:00N 52°24' E 004°53'0 0.0
2018-Jul-31 03:30N 52°24' E 004°53'0 0.0
2018-Jul-31 03:00N 52°24' E 004°53'0 0.0
2018-Jul-31 02:28N 52°24' E 004°53'0 0.0
2018-Jul-31 01:58N 52°24' E 004°53'0 0.0
2018-Jul-31 01:28N 52°24' E 004°53'0 0.0
2018-Jul-31 00:59N 52°24' E 004°53'0 0.0
2018-Jul-31 00:29N 52°24' E 004°53'0 0.0
2018-Jul-30 23:59N 52°24' E 004°53'0 0.0
2018-Jul-30 23:29N 52°24' E 004°53'0 0.0
2018-Jul-30 23:00N 52°24' E 004°53'0 0.0
2018-Jul-30 22:30N 52°24' E 004°53'0 0.0
2018-Jul-30 22:00N 52°24' E 004°53'0 0.0
2018-Jul-30 21:28N 52°24' E 004°53'0 0.0
2018-Jul-30 20:58N 52°24' E 004°53'0 0.0
2018-Jul-30 20:28N 52°24' E 004°53'0 0.0
2018-Jul-30 19:59N 52°24' E 004°53'0 0.0
2018-Jul-30 19:29N 52°24' E 004°53'0 0.0
2018-Jul-30 18:59N 52°24' E 004°53'0 0.0
2018-Jul-30 18:29N 52°24' E 004°53'0 0.0
2018-Jul-30 18:00N 52°24' E 004°53'0 0.0
2018-Jul-30 17:30N 52°24' E 004°53'0 0.0
2018-Jul-30 17:00N 52°24' E 004°53'0 0.0
2018-Jul-30 16:30N 52°24' E 004°53'0 0.0
2018-Jul-30 15:58N 52°24' E 004°53'0 0.0
2018-Jul-30 15:28N 52°24' E 004°53'0 0.0
2018-Jul-30 14:58N 52°24' E 004°53'0 0.0
2018-Jul-30 14:28N 52°24' E 004°53'0 0.0
2018-Jul-30 13:59N 52°24' E 004°53'0 0.0
2018-Jul-30 13:29N 52°24' E 004°53'0 0.0
2018-Jul-30 12:59N 52°24' E 004°53'0 0.0
2018-Jul-30 12:30N 52°24' E 004°53'0 0.0
2018-Jul-30 12:00N 52°24' E 004°53'0 0.0
2018-Jul-30 11:30N 52°24' E 004°53'0 0.0
2018-Jul-30 11:00N 52°24' E 004°53'0 0.0
2018-Jul-30 10:28N 52°24' E 004°53'0 0.0
2018-Jul-30 09:58N 52°24' E 004°53'0 0.0
2018-Jul-30 09:28N 52°24' E 004°53'0 0.0
2018-Jul-30 08:59N 52°24' E 004°53'0 0.0
2018-Jul-30 08:29N 52°24' E 004°53'0 0.0
2018-Jul-30 07:59N 52°24' E 004°53'0 0.0
2018-Jul-30 07:29N 52°24' E 004°53'0 0.0
2018-Jul-30 07:00N 52°24' E 004°53'0 0.0
2018-Jul-30 06:30N 52°24' E 004°53'0 0.0
2018-Jul-30 06:00N 52°24' E 004°53'0 0.0
2018-Jul-30 05:28N 52°24' E 004°53'0 0.0
2018-Jul-30 04:58N 52°24' E 004°53'0 0.0
2018-Jul-30 04:28N 52°24' E 004°53'0 0.0
2018-Jul-30 03:58N 52°24' E 004°53'0 0.0
2018-Jul-30 03:29N 52°24' E 004°53'0 0.0
2018-Jul-30 02:59N 52°24' E 004°53'0 0.0
2018-Jul-30 02:29N 52°24' E 004°53'0 0.0
2018-Jul-30 01:59N 52°24' E 004°53'0 0.0
2018-Jul-30 01:30N 52°24' E 004°53'0 0.0
2018-Jul-30 01:00N 52°24' E 004°53'0 0.0
2018-Jul-30 00:30N 52°24' E 004°53'0 0.0
2018-Jul-29 23:58N 52°24' E 004°53'0 0.0
2018-Jul-29 23:28N 52°24' E 004°53'0 0.0
2018-Jul-29 22:58N 52°24' E 004°53'0 0.0
2018-Jul-29 22:28N 52°24' E 004°53'0 0.0
2018-Jul-29 21:59N 52°24' E 004°53'0 0.0
2018-Jul-29 21:29N 52°24' E 004°53'0 0.0
2018-Jul-29 20:59N 52°24' E 004°53'0 0.0
2018-Jul-29 20:30N 52°24' E 004°53'0 0.0
2018-Jul-29 20:00N 52°24' E 004°53'0 0.0
2018-Jul-29 19:30N 52°24' E 004°53'0 0.0
2018-Jul-29 19:00N 52°24' E 004°53'0 0.0
2018-Jul-29 18:28N 52°24' E 004°53'0 0.0
2018-Jul-29 17:58N 52°24' E 004°53'0 0.0
2018-Jul-29 17:28N 52°24' E 004°53'0 0.0
2018-Jul-29 16:59N 52°24' E 004°53'0 0.0
2018-Jul-29 16:29N 52°24' E 004°53'0 0.0
2018-Jul-29 15:59N 52°24' E 004°53'0 0.0
2018-Jul-29 15:29N 52°24' E 004°53'0 0.0
2018-Jul-29 15:00N 52°24' E 004°53'0 0.0
2018-Jul-29 14:30N 52°24' E 004°53'0 0.0
2018-Jul-29 13:30N 52°24' E 004°53'0 0.0
2018-Jul-29 12:58N 52°24' E 004°53'0 0.0
2018-Jul-29 12:28N 52°24' E 004°53'0 0.0
2018-Jul-29 11:58N 52°24' E 004°53'0 0.0
2018-Jul-29 11:28N 52°24' E 004°53'0 0.0
2018-Jul-29 10:59N 52°24' E 004°53'0 0.0
2018-Jul-29 10:29N 52°24' E 004°53'0 0.0
2018-Jul-29 09:59N 52°24' E 004°53'0 0.0
2018-Jul-29 09:30N 52°24' E 004°53'0 0.0
2018-Jul-29 09:00N 52°24' E 004°53'0 0.0
2018-Jul-29 08:30N 52°24' E 004°53'0 0.0
2018-Jul-29 08:00N 52°24' E 004°53'0 0.0
2018-Jul-29 07:28N 52°24' E 004°53'0 0.0
2018-Jul-29 06:58N 52°24' E 004°53'0 0.0
2018-Jul-29 06:28N 52°24' E 004°53'0 0.0
2018-Jul-29 05:59N 52°24' E 004°53'0 0.0
2018-Jul-29 05:29N 52°24' E 004°53'0 0.0
2018-Jul-29 04:59N 52°24' E 004°53'0 0.0
2018-Jul-29 04:29N 52°24' E 004°53'0 0.0
2018-Jul-29 04:00N 52°24' E 004°53'0 0.0
2018-Jul-29 03:30N 52°24' E 004°53'0 0.0
2018-Jul-29 03:00N 52°24' E 004°53'0 0.0
2018-Jul-29 02:30N 52°24' E 004°53'0 0.0
2018-Jul-29 01:58N 52°24' E 004°53'0 0.0
2018-Jul-29 01:28N 52°24' E 004°53'0 0.0
2018-Jul-29 00:58N 52°24' E 004°53'0 0.0
2018-Jul-29 00:28N 52°24' E 004°53'0 0.0
2018-Jul-28 23:59N 52°24' E 004°53'0 0.0
2018-Jul-28 23:29N 52°24' E 004°53'0 0.0
2018-Jul-28 22:59N 52°24' E 004°53'0 0.0
2018-Jul-28 22:30N 52°24' E 004°53'0 0.0
2018-Jul-28 22:00N 52°24' E 004°53'0 0.0
2018-Jul-28 21:30N 52°24' E 004°53'0 0.0
2018-Jul-28 21:00N 52°24' E 004°53'0 0.0
2018-Jul-28 20:28N 52°24' E 004°53'0 0.0
2018-Jul-28 19:58N 52°24' E 004°53'0 0.0
2018-Jul-28 19:28N 52°24' E 004°53'0 0.0
2018-Jul-28 18:58N 52°24' E 004°53'0 0.0
2018-Jul-28 18:29N 52°24' E 004°53'0 0.0
2018-Jul-28 17:59N 52°24' E 004°53'0 0.0
2018-Jul-28 17:29N 52°24' E 004°53'0 0.0
2018-Jul-28 17:00N 52°24' E 004°53'0 0.0
2018-Jul-28 16:30N 52°24' E 004°53'0 0.0
2018-Jul-28 16:00N 52°24' E 004°53'0 0.0
2018-Jul-28 15:30N 52°24' E 004°53'0 0.0
2018-Jul-28 14:58N 52°24' E 004°53'0 0.0
2018-Jul-28 14:28N 52°24' E 004°53'0 0.0
2018-Jul-28 13:58N 52°24' E 004°53'0 0.0
2018-Jul-28 13:29N 52°24' E 004°53'0 0.0
2018-Jul-28 12:59N 52°24' E 004°53'0 0.0
2018-Jul-28 12:29N 52°24' E 004°53'0 0.0
2018-Jul-28 11:59N 52°24' E 004°53'0 0.0
2018-Jul-28 11:30N 52°24' E 004°53'0 0.0
2018-Jul-28 11:00N 52°24' E 004°53'0 0.0
2018-Jul-28 10:30N 52°24' E 004°53'0 0.0
2018-Jul-28 10:00N 52°24' E 004°53'0 0.0
2018-Jul-28 09:28N 52°24' E 004°53'0 0.0
2018-Jul-28 08:58N 52°24' E 004°53'0 0.0
2018-Jul-28 08:28N 52°24' E 004°53'0 0.0
2018-Jul-28 07:59N 52°24' E 004°53'0 0.0
2018-Jul-28 07:29N 52°24' E 004°53'0 0.0
2018-Jul-28 06:59N 52°24' E 004°53'0 0.0
2018-Jul-28 06:29N 52°24' E 004°53'0 0.0
2018-Jul-28 06:00N 52°24' E 004°53'0 0.0
2018-Jul-28 05:30N 52°24' E 004°53'0 0.0
2018-Jul-28 05:00N 52°24' E 004°53'0 0.0
2018-Jul-28 04:30N 52°24' E 004°53'0 0.0
2018-Jul-28 03:58N 52°24' E 004°53'0 0.0
2018-Jul-28 03:28N 52°24' E 004°53'0 0.0
2018-Jul-28 02:58N 52°24' E 004°53'0 0.0
2018-Jul-28 02:29N 52°24' E 004°53'0 0.0
2018-Jul-28 01:59N 52°24' E 004°53'0 0.0
2018-Jul-28 01:29N 52°24' E 004°53'0 0.0
2018-Jul-28 00:59N 52°24' E 004°53'0 0.0
2018-Jul-28 00:30N 52°24' E 004°53'0 0.0
2018-Jul-28 00:00N 52°24' E 004°53'0 0.0
2018-Jul-27 23:30N 52°24' E 004°53'0 0.0
2018-Jul-27 22:58N 52°24' E 004°53'0 0.0
2018-Jul-27 22:28N 52°24' E 004°53'0 0.0
2018-Jul-27 21:58N 52°24' E 004°53'0 0.0
2018-Jul-27 21:28N 52°24' E 004°53'0 0.0
2018-Jul-27 20:59N 52°24' E 004°53'0 0.0
2018-Jul-27 20:29N 52°24' E 004°53'0 0.0
2018-Jul-27 19:59N 52°24' E 004°53'0 0.0
2018-Jul-27 19:29N 52°24' E 004°53'0 0.0
2018-Jul-27 19:00N 52°24' E 004°53'0 0.0
2018-Jul-27 18:30N 52°24' E 004°53'0 0.0
2018-Jul-27 18:00N 52°24' E 004°53'0 0.0
2018-Jul-27 17:30N 52°24' E 004°53'0 0.0
2018-Jul-27 17:00N 52°24' E 004°53'0 0.0
2018-Jul-27 16:28N 52°24' E 004°53'0 0.0
2018-Jul-27 15:58N 52°24' E 004°53'0 0.0
2018-Jul-27 15:28N 52°24' E 004°53'0 0.0
2018-Jul-27 14:59N 52°24' E 004°53'0 0.0
2018-Jul-27 14:29N 52°24' E 004°53'0 0.0
2018-Jul-27 13:59N 52°24' E 004°53'0 0.0
2018-Jul-27 13:29N 52°24' E 004°53'0 0.3
2018-Jul-27 13:00N 52°24' E 004°53'0 0.2
2018-Jul-27 12:30N 52°24' E 004°53'0 0.0
2018-Jul-27 12:00N 52°24' E 004°53'0 0.0
2018-Jul-27 11:28N 52°24' E 004°53'0 0.0
2018-Jul-27 10:58N 52°24' E 004°53'0 0.0
2018-Jul-27 10:28N 52°24' E 004°53'0 0.0
2018-Jul-27 09:58N 52°24' E 004°53'0 0.0
2018-Jul-27 09:29N 52°24' E 004°53'  
Track history (hours):
 
Tides and Currents Weather Stations Pressure Air Temp Water Temp Dewpoint Dewpoint Depression Visibility Wind Speed Wind Dir Waves Ship Positions

Oceanographic research ship James Cook (UK)

Last reported at 2018-Aug-06 09:00 UTC. Time now 2018-Aug-15 22:11 UTC.
Position N 47°00' W 012°00'.
Warning: this ship's position is 9 days out of date.

Length 89.2 m; beam 18.6 m; draft 5.7 m.

Type: Other ship. MMSI: 235010700.

Wind from 350 at 11 knots

Barometer 1019.7 mb
Air temperature 18.0 ° C
Visibility: greater than 10.8 NM
Dewpoint 12.7 ° C
Water temperature 19.0 ° C

Date/timePositionNaut miles runAvg speedWind from/ knotsBaromVisibWave heightAir tempDewpointWater temp
2018-Aug-06 09:00N 47°00' W 012°00'25811.5 350 / 111019.710.8 18.012.719.0
2018-Aug-05 10:35N 49°02' W 006°20'811.8
2018-Aug-05 09:54N 49°05' W 006°08'2611.6
2018-Aug-05 07:37N 49°17' W 005°32'2312.2
2018-Aug-05 05:45N 49°25' W 004°59'612.8
2018-Aug-05 05:20N 49°27' W 004°52'513.0
2018-Aug-05 04:59N 49°28' W 004°45'613.0
2018-Aug-05 04:30N 49°31' W 004°36'713.1
2018-Aug-05 04:00N 49°33' W 004°27'813.2
2018-Aug-05 03:24N 49°36' W 004°16'1413.0
2018-Aug-05 02:21N 49°41' W 003°56'412.7
2018-Aug-05 02:00N 49°43' W 003°50'612.3
2018-Aug-05 01:30N 49°46' W 003°41'612.0
2018-Aug-05 01:00N 49°48' W 003°33'611.8
2018-Aug-05 00:30N 49°51' W 003°25'611.5
2018-Aug-05 00:01N 49°53' W 003°16'611.4
2018-Aug-04 23:30N 49°55' W 003°08'611.6
2018-Aug-04 23:00N 49°57' W 002°60'611.7
2018-Aug-04 22:30N 49°59' W 002°51'611.8
2018-Aug-04 22:00N 50°00' W 002°42'612.2
2018-Aug-04 21:28N 50°02' W 002°33'612.6
2018-Aug-04 21:00N 50°04' W 002°24'713.1
2018-Aug-04 20:28N 50°05' W 002°13'1113.9
2018-Aug-04 19:42N 50°08' W 001°57'7713.0
2018-Aug-04 13:48N 50°28' W 000°01'410.7
2018-Aug-04 13:28N 50°29' E 000°04'510.7
2018-Aug-04 13:00N 50°30' E 000°12'510.9
2018-Aug-04 12:30N 50°32' E 000°20'611.5
2018-Aug-04 12:00N 50°34' E 000°28'611.6
2018-Aug-04 11:30N 50°35' E 000°37'612.7
2018-Aug-04 11:00N 50°39' E 000°45'713.5
2018-Aug-04 10:30N 50°43' E 000°54'713.9
2018-Aug-04 10:00N 50°47' E 001°03'714.0
2018-Aug-04 09:30N 50°51' E 001°12'713.9
2018-Aug-04 09:01N 50°56' E 001°19'713.8
2018-Aug-04 08:30N 51°01' E 001°27'612.5
2018-Aug-04 08:00N 51°05' E 001°34'611.8
2018-Aug-04 07:30N 51°10' E 001°41'611.5
2018-Aug-04 07:01N 51°14' E 001°47'510.9
2018-Aug-04 06:31N 51°18' E 001°52'510.9
2018-Aug-04 06:01N 51°23' E 001°55'510.6
2018-Aug-04 05:31N 51°28' E 001°60'511.0
2018-Aug-04 05:01N 51°32' E 002°06'611.3
2018-Aug-04 04:31N 51°36' E 002°12'611.4
2018-Aug-04 04:01N 51°40' E 002°18'612.0
2018-Aug-04 03:31N 51°44' E 002°25'612.5
2018-Aug-04 03:00N 51°49' E 002°32'713.1
2018-Aug-04 02:30N 51°54' E 002°39'713.4
2018-Aug-04 02:00N 51°59' E 002°45'713.7
2018-Aug-04 01:30N 52°05' E 002°52'713.7
2018-Aug-04 01:00N 52°10' E 002°59'713.5
2018-Aug-04 00:31N 52°14' E 003°07'713.3
2018-Aug-04 00:01N 52°18' E 003°17'713.1
2018-Aug-03 23:31N 52°22' E 003°25'712.9
2018-Aug-03 23:00N 52°26' E 003°33'612.3
2018-Aug-03 22:31N 52°30' E 003°42'611.7
2018-Aug-03 22:01N 52°31' E 003°51'612.4
2018-Aug-03 21:30N 52°31' E 004°01'612.1
2018-Aug-03 21:01N 52°31' E 004°11'611.9
2018-Aug-03 20:31N 52°30' E 004°21'611.6
2018-Aug-03 20:00N 52°28' E 004°30'4 8.2
2018-Aug-03 19:30N 52°28' E 004°36'0 0.2
2018-Aug-03 19:00N 52°28' E 004°37'2 3.9
2018-Aug-03 18:31N 52°28' E 004°40'4 8.0
2018-Aug-03 18:01N 52°26' E 004°45'4 8.8
2018-Aug-03 17:31N 52°25' E 004°52'0 0.8
2018-Aug-03 17:00N 52°24' E 004°53'0 0.0
2018-Aug-03 16:30N 52°24' E 004°53'0 0.0
2018-Aug-03 16:00N 52°24' E 004°53'0 0.0
2018-Aug-03 15:30N 52°24' E 004°53'0 0.0
2018-Aug-03 14:58N 52°24' E 004°53'0 0.0
2018-Aug-03 14:28N 52°24' E 004°53'0 0.0
2018-Aug-03 13:58N 52°24' E 004°53'0 0.0
2018-Aug-03 13:28N 52°24' E 004°53'0 0.0
2018-Aug-03 12:59N 52°24' E 004°53'0 0.0
2018-Aug-03 12:29N 52°24' E 004°53'0 0.0
2018-Aug-03 11:59N 52°24' E 004°53'0 0.0
2018-Aug-03 11:29N 52°24' E 004°53'0 0.0
2018-Aug-03 11:00N 52°24' E 004°53'0 0.0
2018-Aug-03 10:30N 52°24' E 004°53'0 0.0
2018-Aug-03 10:00N 52°24' E 004°53'0 0.0
2018-Aug-03 09:30N 52°24' E 004°53'0 0.0
2018-Aug-03 08:58N 52°24' E 004°53'0 0.0
2018-Aug-03 08:28N 52°24' E 004°53'0 0.0
2018-Aug-03 07:58N 52°24' E 004°53'0 0.0
2018-Aug-03 07:29N 52°24' E 004°53'0 0.0
2018-Aug-03 06:59N 52°24' E 004°53'0 0.0
2018-Aug-03 06:29N 52°24' E 004°53'0 0.0
2018-Aug-03 05:59N 52°24' E 004°53'0 0.0
2018-Aug-03 05:30N 52°24' E 004°53'0 0.0
2018-Aug-03 05:00N 52°24' E 004°53'0 0.0
2018-Aug-03 04:30N 52°24' E 004°53'0 0.0
2018-Aug-03 04:00N 52°24' E 004°53'0 0.0
2018-Aug-03 03:28N 52°24' E 004°53'0 0.0
2018-Aug-03 02:58N 52°24' E 004°53'0 0.0
2018-Aug-03 02:28N 52°24' E 004°53'0 0.0
2018-Aug-03 01:59N 52°24' E 004°53'0 0.0
2018-Aug-03 01:29N 52°24' E 004°53'0 0.0
2018-Aug-03 00:59N 52°24' E 004°53'0 0.0
2018-Aug-03 00:29N 52°24' E 004°53'0 0.0
2018-Aug-03 00:00N 52°24' E 004°53'0 0.0
2018-Aug-02 23:30N 52°24' E 004°53'0 0.0
2018-Aug-02 23:00N 52°24' E 004°53'0 0.0
2018-Aug-02 22:30N 52°24' E 004°53'0 0.0
2018-Aug-02 21:58N 52°24' E 004°53'0 0.0
2018-Aug-02 21:28N 52°24' E 004°53'0 0.0
2018-Aug-02 20:58N 52°24' E 004°53'0 0.0
2018-Aug-02 20:28N 52°24' E 004°53'0 0.0
2018-Aug-02 19:59N 52°24' E 004°53'0 0.0
2018-Aug-02 19:29N 52°24' E 004°53'0 0.0
2018-Aug-02 18:59N 52°24' E 004°53'0 0.0
2018-Aug-02 18:29N 52°24' E 004°53'0 0.0
2018-Aug-02 18:00N 52°24' E 004°53'0 0.0
2018-Aug-02 17:30N 52°24' E 004°53'0 0.0
2018-Aug-02 17:00N 52°24' E 004°53'0 0.0
2018-Aug-02 16:30N 52°24' E 004°53'0 0.0
2018-Aug-02 15:58N 52°24' E 004°53'0 0.0
2018-Aug-02 15:28N 52°24' E 004°53'0 0.0
2018-Aug-02 14:58N 52°24' E 004°53'0 0.0
2018-Aug-02 14:29N 52°24' E 004°53'0 0.0
2018-Aug-02 13:59N 52°24' E 004°53'0 0.0
2018-Aug-02 13:29N 52°24' E 004°53'0 0.0
2018-Aug-02 12:59N 52°24' E 004°53'0 0.0
2018-Aug-02 12:30N 52°24' E 004°53'0 0.0
2018-Aug-02 12:00N 52°24' E 004°53'0 0.0
2018-Aug-02 11:30N 52°24' E 004°53'0 0.0
2018-Aug-02 11:00N 52°24' E 004°53'0 0.0
2018-Aug-02 10:28N 52°24' E 004°53'0 0.0
2018-Aug-02 09:58N 52°24' E 004°53'0 0.0
2018-Aug-02 09:28N 52°24' E 004°53'0 0.0
2018-Aug-02 08:59N 52°24' E 004°53'0 0.0
2018-Aug-02 08:29N 52°24' E 004°53'0 0.0
2018-Aug-02 07:59N 52°24' E 004°53'0 0.0
2018-Aug-02 07:29N 52°24' E 004°53'0 0.0
2018-Aug-02 07:00N 52°24' E 004°53'0 0.0
2018-Aug-02 06:30N 52°24' E 004°53'0 0.0
2018-Aug-02 06:00N 52°24' E 004°53'0 0.0
2018-Aug-02 05:30N 52°24' E 004°53'0 0.0
2018-Aug-02 04:58N 52°24' E 004°53'0 0.0
2018-Aug-02 04:28N 52°24' E 004°53'0 0.0
2018-Aug-02 03:58N 52°24' E 004°53'0 0.0
2018-Aug-02 03:28N 52°24' E 004°53'0 0.0
2018-Aug-02 02:59N 52°24' E 004°53'0 0.0
2018-Aug-02 02:29N 52°24' E 004°53'0 0.0
2018-Aug-02 01:59N 52°24' E 004°53'0 0.0
2018-Aug-02 01:29N 52°24' E 004°53'0 0.0
2018-Aug-02 01:00N 52°24' E 004°53'0 0.0
2018-Aug-02 00:30N 52°24' E 004°53'0 0.0
2018-Aug-02 00:00N 52°24' E 004°53'0 0.0
2018-Aug-01 23:28N 52°24' E 004°53'0 0.0
2018-Aug-01 22:58N 52°24' E 004°53'0 0.0
2018-Aug-01 22:28N 52°24' E 004°53'0 0.0
2018-Aug-01 21:58N 52°24' E 004°53'0 0.0
2018-Aug-01 21:29N 52°24' E 004°53'0 0.0
2018-Aug-01 20:59N 52°24' E 004°53'0 0.0
2018-Aug-01 20:29N 52°24' E 004°53'0 0.0
2018-Aug-01 20:00N 52°24' E 004°53'0 0.0
2018-Aug-01 19:30N 52°24' E 004°53'0 0.0
2018-Aug-01 19:00N 52°24' E 004°53'0 0.0
2018-Aug-01 18:30N 52°24' E 004°53'0 0.0
2018-Aug-01 17:58N 52°24' E 004°53'0 0.0
2018-Aug-01 17:28N 52°24' E 004°53'0 0.0
2018-Aug-01 16:58N 52°24' E 004°53'0 0.0
2018-Aug-01 16:28N 52°24' E 004°53'0 0.0
2018-Aug-01 15:59N 52°24' E 004°53'0 0.0
2018-Aug-01 15:29N 52°24' E 004°53'0 0.0
2018-Aug-01 14:59N 52°24' E 004°53'0 0.0
2018-Aug-01 14:00N 52°24' E 004°53'0 0.0
2018-Aug-01 13:30N 52°24' E 004°53'0 0.0
2018-Aug-01 13:00N 52°24' E 004°53'0 0.0
2018-Aug-01 12:30N 52°24' E 004°53'0 0.0
2018-Aug-01 11:58N 52°24' E 004°53'0 0.0
2018-Aug-01 11:28N 52°24' E 004°53'0 0.0
2018-Aug-01 10:58N 52°24' E 004°53'0 0.0
2018-Aug-01 10:29N 52°24' E 004°53'0 0.0
2018-Aug-01 09:59N 52°24' E 004°53'0 0.0
2018-Aug-01 09:29N 52°24' E 004°53'0 0.0
2018-Aug-01 08:59N 52°24' E 004°53'0 0.0
2018-Aug-01 08:30N 52°24' E 004°53'0 0.0
2018-Aug-01 08:00N 52°24' E 004°53'0 0.0
2018-Aug-01 07:30N 52°24' E 004°53'0 0.0
2018-Aug-01 07:00N 52°24' E 004°53'0 0.0
2018-Aug-01 06:28N 52°24' E 004°53'0 0.0
2018-Aug-01 05:58N 52°24' E 004°53'0 0.0
2018-Aug-01 05:28N 52°24' E 004°53'0 0.0
2018-Aug-01 04:59N 52°24' E 004°53'0 0.0
2018-Aug-01 04:29N 52°24' E 004°53'0 0.0
2018-Aug-01 03:59N 52°24' E 004°53'0 0.0
2018-Aug-01 03:29N 52°24' E 004°53'0 0.0
2018-Aug-01 03:00N 52°24' E 004°53'0 0.0
2018-Aug-01 02:30N 52°24' E 004°53'0 0.0
2018-Aug-01 02:00N 52°24' E 004°53'0 0.0
2018-Aug-01 01:30N 52°24' E 004°53'0 0.0
2018-Aug-01 00:58N 52°24' E 004°53'0 0.0
2018-Jul-31 22:29N 52°24' E 004°53'0 0.0
2018-Jul-31 21:59N 52°24' E 004°53'0 0.0
2018-Jul-31 21:30N 52°24' E 004°53'0 0.0
2018-Jul-31 21:00N 52°24' E 004°53'0 0.0
2018-Jul-31 20:30N 52°24' E 004°53'0 0.0
2018-Jul-31 20:00N 52°24' E 004°53'0 0.0
2018-Jul-31 19:28N 52°24' E 004°53'0 0.0
2018-Jul-31 18:58N 52°24' E 004°53'0 0.0
2018-Jul-31 18:28N 52°24' E 004°53'0 0.0
2018-Jul-31 17:58N 52°24' E 004°53'0 0.0
2018-Jul-31 17:29N 52°24' E 004°53'0 0.0
2018-Jul-31 16:59N 52°24' E 004°53'0 0.0
2018-Jul-31 16:29N 52°24' E 004°53'0 0.0
2018-Jul-31 15:59N 52°24' E 004°53'0 0.0
2018-Jul-31 15:30N 52°24' E 004°53'0 0.0
2018-Jul-31 15:00N 52°24' E 004°53'0 0.0
2018-Jul-31 14:30N 52°24' E 004°53'0 0.0
2018-Jul-31 14:00N 52°24' E 004°53'0 0.0
2018-Jul-31 13:28N 52°24' E 004°53'0 0.0
2018-Jul-31 12:58N 52°24' E 004°53'0 0.0
2018-Jul-31 12:28N 52°24' E 004°53'0 0.0
2018-Jul-31 11:58N 52°24' E 004°53'0 0.0
2018-Jul-31 11:29N 52°24' E 004°53'0 0.0
2018-Jul-31 10:59N 52°24' E 004°53'0 0.0
2018-Jul-31 10:29N 52°24' E 004°53'0 0.0
2018-Jul-31 09:59N 52°24' E 004°53'0 0.0
2018-Jul-31 09:30N 52°24' E 004°53'0 0.0
2018-Jul-31 09:00N 52°24' E 004°53'0 0.0
2018-Jul-31 08:30N 52°24' E 004°53'0 0.0
2018-Jul-31 07:58N 52°24' E 004°53'0 0.0
2018-Jul-31 07:28N 52°24' E 004°53'0 0.0
2018-Jul-31 06:58N 52°24' E 004°53'0 0.0
2018-Jul-31 06:28N 52°24' E 004°53'0 0.0
2018-Jul-31 05:59N 52°24' E 004°53'0 0.0
2018-Jul-31 05:29N 52°24' E 004°53'0 0.0
2018-Jul-31 04:59N 52°24' E 004°53'0 0.0
2018-Jul-31 04:30N 52°24' E 004°53'0 0.0
2018-Jul-31 04:00N 52°24' E 004°53'0 0.0
2018-Jul-31 03:30N 52°24' E 004°53'0 0.0
2018-Jul-31 03:00N 52°24' E 004°53'0 0.0
2018-Jul-31 02:28N 52°24' E 004°53'0 0.0
2018-Jul-31 01:58N 52°24' E 004°53'0 0.0
2018-Jul-31 01:28N 52°24' E 004°53'0 0.0
2018-Jul-31 00:59N 52°24' E 004°53'0 0.0
2018-Jul-31 00:29N 52°24' E 004°53'0 0.0
2018-Jul-30 23:59N 52°24' E 004°53'0 0.0
2018-Jul-30 23:29N 52°24' E 004°53'0 0.0
2018-Jul-30 23:00N 52°24' E 004°53'0 0.0
2018-Jul-30 22:30N 52°24' E 004°53'0 0.0
2018-Jul-30 22:00N 52°24' E 004°53'0 0.0
2018-Jul-30 21:28N 52°24' E 004°53'0 0.0
2018-Jul-30 20:58N 52°24' E 004°53'0 0.0
2018-Jul-30 20:28N 52°24' E 004°53'0 0.0
2018-Jul-30 19:59N 52°24' E 004°53'0 0.0
2018-Jul-30 19:29N 52°24' E 004°53'0 0.0
2018-Jul-30 18:59N 52°24' E 004°53'0 0.0
2018-Jul-30 18:29N 52°24' E 004°53'0 0.0
2018-Jul-30 18:00N 52°24' E 004°53'0 0.0
2018-Jul-30 17:30N 52°24' E 004°53'0 0.0
2018-Jul-30 17:00N 52°24' E 004°53'0 0.0
2018-Jul-30 16:30N 52°24' E 004°53'0 0.0
2018-Jul-30 15:58N 52°24' E 004°53'0 0.0
2018-Jul-30 15:28N 52°24' E 004°53'0 0.0
2018-Jul-30 14:58N 52°24' E 004°53'0 0.0
2018-Jul-30 14:28N 52°24' E 004°53'0 0.0
2018-Jul-30 13:59N 52°24' E 004°53'0 0.0
2018-Jul-30 13:29N 52°24' E 004°53'0 0.0
2018-Jul-30 12:59N 52°24' E 004°53'0 0.0
2018-Jul-30 12:30N 52°24' E 004°53'0 0.0
2018-Jul-30 12:00N 52°24' E 004°53'0 0.0
2018-Jul-30 11:30N 52°24' E 004°53'0 0.0
2018-Jul-30 11:00N 52°24' E 004°53'0 0.0
2018-Jul-30 10:28N 52°24' E 004°53'0 0.0
2018-Jul-30 09:58N 52°24' E 004°53'0 0.0
2018-Jul-30 09:28N 52°24' E 004°53'0 0.0
2018-Jul-30 08:59N 52°24' E 004°53'0 0.0
2018-Jul-30 08:29N 52°24' E 004°53'0 0.0
2018-Jul-30 07:59N 52°24' E 004°53'0 0.0
2018-Jul-30 07:29N 52°24' E 004°53'0 0.0
2018-Jul-30 07:00N 52°24' E 004°53'0 0.0
2018-Jul-30 06:30N 52°24' E 004°53'0 0.0
2018-Jul-30 06:00N 52°24' E 004°53'0 0.0
2018-Jul-30 05:28N 52°24' E 004°53'0 0.0
2018-Jul-30 04:58N 52°24' E 004°53'0 0.0
2018-Jul-30 04:28N 52°24' E 004°53'0 0.0
2018-Jul-30 03:58N 52°24' E 004°53'0 0.0
2018-Jul-30 03:29N 52°24' E 004°53'0 0.0
2018-Jul-30 02:59N 52°24' E 004°53'0 0.0
2018-Jul-30 02:29N 52°24' E 004°53'0 0.0
2018-Jul-30 01:59N 52°24' E 004°53'0 0.0
2018-Jul-30 01:30N 52°24' E 004°53'0 0.0
2018-Jul-30 01:00N 52°24' E 004°53'0 0.0
2018-Jul-30 00:30N 52°24' E 004°53'0 0.0
2018-Jul-29 23:58N 52°24' E 004°53'0 0.0
2018-Jul-29 23:28N 52°24' E 004°53'0 0.0
2018-Jul-29 22:58N 52°24' E 004°53'0 0.0
2018-Jul-29 22:28N 52°24' E 004°53'0 0.0
2018-Jul-29 21:59N 52°24' E 004°53'0 0.0
2018-Jul-29 21:29N 52°24' E 004°53'0 0.0
2018-Jul-29 20:59N 52°24' E 004°53'0 0.0
2018-Jul-29 20:30N 52°24' E 004°53'0 0.0
2018-Jul-29 20:00N 52°24' E 004°53'0 0.0
2018-Jul-29 19:30N 52°24' E 004°53'0 0.0
2018-Jul-29 19:00N 52°24' E 004°53'0 0.0
2018-Jul-29 18:28N 52°24' E 004°53'0 0.0
2018-Jul-29 17:58N 52°24' E 004°53'0 0.0
2018-Jul-29 17:28N 52°24' E 004°53'0 0.0
2018-Jul-29 16:59N 52°24' E 004°53'0 0.0
2018-Jul-29 16:29N 52°24' E 004°53'0 0.0
2018-Jul-29 15:59N 52°24' E 004°53'0 0.0
2018-Jul-29 15:29N 52°24' E 004°53'0 0.0
2018-Jul-29 15:00N 52°24' E 004°53'0 0.0
2018-Jul-29 14:30N 52°24' E 004°53'0 0.0
2018-Jul-29 13:30N 52°24' E 004°53'0 0.0
2018-Jul-29 12:58N 52°24' E 004°53'0 0.0
2018-Jul-29 12:28N 52°24' E 004°53'0 0.0
2018-Jul-29 11:58N 52°24' E 004°53'0 0.0
2018-Jul-29 11:28N 52°24' E 004°53'0 0.0
2018-Jul-29 10:59N 52°24' E 004°53'0 0.0
2018-Jul-29 10:29N 52°24' E 004°53'0 0.0
2018-Jul-29 09:59N 52°24' E 004°53'0 0.0
2018-Jul-29 09:30N 52°24' E 004°53'0 0.0
2018-Jul-29 09:00N 52°24' E 004°53'0 0.0
2018-Jul-29 08:30N 52°24' E 004°53'0 0.0
2018-Jul-29 08:00N 52°24' E 004°53'0 0.0
2018-Jul-29 07:28N 52°24' E 004°53'0 0.0
2018-Jul-29 06:58N 52°24' E 004°53'0 0.0
2018-Jul-29 06:28N 52°24' E 004°53'0 0.0
2018-Jul-29 05:59N 52°24' E 004°53'0 0.0
2018-Jul-29 05:29N 52°24' E 004°53'0 0.0
2018-Jul-29 04:59N 52°24' E 004°53'0 0.0
2018-Jul-29 04:29N 52°24' E 004°53'0 0.0
2018-Jul-29 04:00N 52°24' E 004°53'0 0.0
2018-Jul-29 03:30N 52°24' E 004°53'0 0.0
2018-Jul-29 03:00N 52°24' E 004°53'0 0.0
2018-Jul-29 02:30N 52°24' E 004°53'0 0.0
2018-Jul-29 01:58N 52°24' E 004°53'0 0.0
2018-Jul-29 01:28N 52°24' E 004°53'0 0.0
2018-Jul-29 00:58N 52°24' E 004°53'0 0.0
2018-Jul-29 00:28N 52°24' E 004°53'0 0.0
2018-Jul-28 23:59N 52°24' E 004°53'0 0.0
2018-Jul-28 23:29N 52°24' E 004°53'0 0.0
2018-Jul-28 22:59N 52°24' E 004°53'0 0.0
2018-Jul-28 22:30N 52°24' E 004°53'0 0.0
2018-Jul-28 22:00N 52°24' E 004°53'0 0.0
2018-Jul-28 21:30N 52°24' E 004°53'0 0.0
2018-Jul-28 21:00N 52°24' E 004°53'0 0.0
2018-Jul-28 20:28N 52°24' E 004°53'0 0.0
2018-Jul-28 19:58N 52°24' E 004°53'0 0.0
2018-Jul-28 19:28N 52°24' E 004°53'0 0.0
2018-Jul-28 18:58N 52°24' E 004°53'0 0.0
2018-Jul-28 18:29N 52°24' E 004°53'0 0.0
2018-Jul-28 17:59N 52°24' E 004°53'0 0.0
2018-Jul-28 17:29N 52°24' E 004°53'0 0.0
2018-Jul-28 17:00N 52°24' E 004°53'0 0.0
2018-Jul-28 16:30N 52°24' E 004°53'0 0.0
2018-Jul-28 16:00N 52°24' E 004°53'0 0.0
2018-Jul-28 15:30N 52°24' E 004°53'0 0.0
2018-Jul-28 14:58N 52°24' E 004°53'0 0.0
2018-Jul-28 14:28N 52°24' E 004°53'0 0.0
2018-Jul-28 13:58N 52°24' E 004°53'0 0.0
2018-Jul-28 13:29N 52°24' E 004°53'0 0.0
2018-Jul-28 12:59N 52°24' E 004°53'0 0.0
2018-Jul-28 12:29N 52°24' E 004°53'0 0.0
2018-Jul-28 11:59N 52°24' E 004°53'0 0.0
2018-Jul-28 11:30N 52°24' E 004°53'0 0.0
2018-Jul-28 11:00N 52°24' E 004°53'0 0.0
2018-Jul-28 10:30N 52°24' E 004°53'0 0.0
2018-Jul-28 10:00N 52°24' E 004°53'0 0.0
2018-Jul-28 09:28N 52°24' E 004°53'0 0.0
2018-Jul-28 08:58N 52°24' E 004°53'0 0.0
2018-Jul-28 08:28N 52°24' E 004°53'0 0.0
2018-Jul-28 07:59N 52°24' E 004°53'0 0.0
2018-Jul-28 07:29N 52°24' E 004°53'0 0.0
2018-Jul-28 06:59N 52°24' E 004°53'0 0.0
2018-Jul-28 06:29N 52°24' E 004°53'0 0.0
2018-Jul-28 06:00N 52°24' E 004°53'0 0.0
2018-Jul-28 05:30N 52°24' E 004°53'0 0.0
2018-Jul-28 05:00N 52°24' E 004°53'0 0.0
2018-Jul-28 04:30N 52°24' E 004°53'0 0.0
2018-Jul-28 03:58N 52°24' E 004°53'0 0.0
2018-Jul-28 03:28N 52°24' E 004°53'0 0.0
2018-Jul-28 02:58N 52°24' E 004°53'0 0.0
2018-Jul-28 02:29N 52°24' E 004°53'0 0.0
2018-Jul-28 01:59N 52°24' E 004°53'0 0.0
2018-Jul-28 01:29N 52°24' E 004°53'0 0.0
2018-Jul-28 00:59N 52°24' E 004°53'0 0.0
2018-Jul-28 00:30N 52°24' E 004°53'0 0.0
2018-Jul-28 00:00N 52°24' E 004°53'0 0.0
2018-Jul-27 23:30N 52°24' E 004°53'0 0.0
2018-Jul-27 22:58N 52°24' E 004°53'0 0.0
2018-Jul-27 22:28N 52°24' E 004°53'0 0.0
2018-Jul-27 21:58N 52°24' E 004°53'0 0.0
2018-Jul-27 21:28N 52°24' E 004°53'0 0.0
2018-Jul-27 20:59N 52°24' E 004°53'0 0.0
2018-Jul-27 20:29N 52°24' E 004°53'0 0.0
2018-Jul-27 19:59N 52°24' E 004°53'0 0.0
2018-Jul-27 19:29N 52°24' E 004°53'0 0.0
2018-Jul-27 19:00N 52°24' E 004°53'0 0.0
2018-Jul-27 18:30N 52°24' E 004°53'0 0.0
2018-Jul-27 18:00N 52°24' E 004°53'0 0.0
2018-Jul-27 17:30N 52°24' E 004°53'0 0.0
2018-Jul-27 17:00N 52°24' E 004°53'0 0.0
2018-Jul-27 16:28N 52°24' E 004°53'0 0.0
2018-Jul-27 15:58N 52°24' E 004°53'0 0.0
2018-Jul-27 15:28N 52°24' E 004°53'0 0.0
2018-Jul-27 14:59N 52°24' E 004°53'0 0.0
2018-Jul-27 14:29N 52°24' E 004°53'0 0.0
2018-Jul-27 13:59N 52°24' E 004°53'0 0.0
2018-Jul-27 13:29N 52°24' E 004°53'0 0.3
2018-Jul-27 13:00N 52°24' E 004°53'0 0.2
2018-Jul-27 12:30N 52°24' E 004°53'0 0.0
2018-Jul-27 12:00N 52°24' E 004°53'0 0.0
2018-Jul-27 11:28N 52°24' E 004°53'0 0.0
2018-Jul-27 10:58N 52°24' E 004°53'0 0.0
2018-Jul-27 10:28N 52°24' E 004°53'0 0.0
2018-Jul-27 09:58N 52°24' E 004°53'0 0.0
2018-Jul-27 09:29N 52°24' E 004°53'  

Dump ship's entire track history